createdAt,value
2023-05-17T00:00:59.397Z,3.86
2023-05-17T00:02:01.674Z,3.55
2023-05-17T00:03:03.631Z,4.20
2023-05-17T00:04:05.752Z,3.42
2023-05-17T00:05:09.022Z,3.78
2023-05-17T00:06:11.495Z,4.04
2023-05-17T00:07:13.996Z,3.43
2023-05-17T00:08:16.048Z,3.67
2023-05-17T00:09:18.259Z,3.21
2023-05-17T00:10:20.796Z,3.79
2023-05-17T00:11:22.751Z,3.91
2023-05-17T00:12:24.780Z,3.77
2023-05-17T00:13:26.696Z,3.97
2023-05-17T00:14:28.685Z,3.19
2023-05-17T00:15:31.055Z,3.58
2023-05-17T00:16:33.307Z,3.87
2023-05-17T00:17:35.326Z,3.55
2023-05-17T00:18:38.485Z,3.63
2023-05-17T00:19:40.733Z,4.33
2023-05-17T00:20:42.869Z,3.49
2023-05-17T00:21:45.425Z,3.69
2023-05-17T00:22:47.357Z,3.65
2023-05-17T00:23:49.348Z,4.18
2023-05-17T00:24:51.278Z,3.71
2023-05-17T00:25:53.273Z,3.78
2023-05-17T00:26:55.361Z,4.76
2023-05-17T00:27:57.250Z,3.95
2023-05-17T00:28:59.122Z,4.39
2023-05-17T00:30:01.045Z,4.32
2023-05-17T00:31:03.040Z,3.99
2023-05-17T00:32:05.979Z,3.78
2023-05-17T00:33:08.266Z,3.54
2023-05-17T00:34:10.299Z,3.28
2023-05-17T00:35:12.207Z,3.87
2023-05-17T00:36:14.651Z,3.84
2023-05-17T00:37:16.626Z,3.97
2023-05-17T00:38:18.526Z,4.42
2023-05-17T00:39:20.433Z,3.83
2023-05-17T00:40:22.555Z,3.51
2023-05-17T00:41:24.445Z,4.08
2023-05-17T00:42:26.350Z,3.73
2023-05-17T00:43:28.232Z,3.71
2023-05-17T00:44:30.260Z,3.81
2023-05-17T00:45:32.139Z,4.02
2023-05-17T00:46:34.138Z,4.07
2023-05-17T00:47:36.187Z,3.99
2023-05-17T00:48:39.240Z,3.39
2023-05-17T00:49:41.514Z,3.83
2023-05-17T00:50:43.937Z,4.59
2023-05-17T00:51:49.820Z,3.52
2023-05-17T00:52:52.435Z,3.63
2023-05-17T00:53:54.655Z,4.12
2023-05-17T00:54:56.877Z,3.77
2023-05-17T00:56:00.059Z,3.67
2023-05-17T00:57:03.798Z,3.64
2023-05-17T00:58:05.826Z,3.52
2023-05-17T00:59:08.535Z,4.13
2023-05-17T01:00:12.613Z,4.32
2023-05-17T01:01:15.049Z,3.78
2023-05-17T01:02:16.964Z,3.85
2023-05-17T01:03:19.145Z,3.85
2023-05-17T01:04:21.632Z,3.91
2023-05-17T01:05:23.840Z,4.08
2023-05-17T01:06:26.077Z,4.01
2023-05-17T01:07:28.075Z,4.10
2023-05-17T01:08:30.719Z,3.78
2023-05-17T01:09:33.012Z,4.01
2023-05-17T01:11:09.163Z,3.75
2023-05-17T01:12:27.256Z,4.24
2023-05-17T01:13:41.974Z,3.83
2023-05-17T01:14:59.822Z,4.52
2023-05-17T01:16:11.908Z,3.86
2023-05-17T01:17:26.829Z,4.41
2023-05-17T01:18:36.140Z,4.22
2023-05-17T01:20:03.155Z,4.11
2023-05-17T01:21:09.042Z,4.35
2023-05-17T01:22:37.877Z,4.04
2023-05-17T01:23:43.662Z,3.92
2023-05-17T01:25:17.193Z,3.77
2023-05-17T01:26:35.277Z,4.18
2023-05-17T01:27:40.393Z,4.04
2023-05-17T01:28:46.091Z,4.13
2023-05-17T01:29:50.215Z,3.91
2023-05-17T01:30:53.509Z,4.10
2023-05-17T01:31:57.022Z,3.81
2023-05-17T01:33:01.826Z,3.94
2023-05-17T01:34:08.451Z,3.94
2023-05-17T01:35:11.340Z,3.79
2023-05-17T01:36:13.646Z,4.21
2023-05-17T01:37:16.759Z,3.79
2023-05-17T01:38:20.051Z,4.02
2023-05-17T01:39:22.371Z,3.61
2023-05-17T01:40:24.945Z,4.35
2023-05-17T01:41:30.615Z,4.11
2023-05-17T01:42:33.474Z,3.81
2023-05-17T01:43:39.140Z,4.22
2023-05-17T01:44:53.429Z,4.38
2023-05-17T01:46:18.757Z,3.70
2023-05-17T01:48:44.675Z,4.07
2023-05-17T01:49:50.177Z,4.18
2023-05-17T01:50:55.833Z,3.76
2023-05-17T01:52:04.549Z,3.57
2023-05-17T01:54:30.236Z,3.74
2023-05-17T01:55:45.078Z,3.72
2023-05-17T01:56:50.426Z,4.11
2023-05-17T01:57:55.419Z,4.27
2023-05-17T01:58:59.277Z,4.52
2023-05-17T02:00:04.585Z,4.32
2023-05-17T02:01:09.358Z,3.74
2023-05-17T02:02:11.805Z,3.64
2023-05-17T02:03:18.340Z,4.13
2023-05-17T02:04:20.744Z,3.93
2023-05-17T02:05:23.261Z,4.40
2023-05-17T02:06:25.472Z,3.90
2023-05-17T02:07:27.365Z,4.11
2023-05-17T02:08:29.529Z,3.67
2023-05-17T02:09:31.499Z,4.29
2023-05-17T02:10:33.596Z,3.78
2023-05-17T02:11:35.992Z,4.23
2023-05-17T02:12:38.007Z,3.89
2023-05-17T02:13:40.292Z,4.25
2023-05-17T02:14:42.528Z,3.87
2023-05-17T02:15:44.463Z,3.72
2023-05-17T02:16:46.528Z,4.33
2023-05-17T02:17:49.329Z,4.37
2023-05-17T02:18:51.610Z,4.10
2023-05-17T02:19:53.782Z,4.21
2023-05-17T02:20:55.924Z,4.08
2023-05-17T02:21:57.800Z,4.23
2023-05-17T02:22:59.752Z,3.70
2023-05-17T02:24:01.840Z,4.55
2023-05-17T02:25:04.885Z,3.87
2023-05-17T02:26:07.109Z,3.84
2023-05-17T02:27:09.095Z,4.35
2023-05-17T02:28:10.989Z,3.69
2023-05-17T02:29:14.091Z,3.69
2023-05-17T02:30:18.119Z,4.15
2023-05-17T02:31:20.384Z,4.04
2023-05-17T02:32:22.615Z,3.72
2023-05-17T02:33:24.797Z,3.91
2023-05-17T02:34:26.934Z,4.16
2023-05-17T02:35:29.123Z,4.16
2023-05-17T02:36:31.612Z,4.05
2023-05-17T02:37:33.576Z,4.17
2023-05-17T02:38:35.498Z,3.57
2023-05-17T02:39:37.398Z,4.03
2023-05-17T02:40:41.486Z,3.74
2023-05-17T02:41:43.857Z,4.28
2023-05-17T02:42:45.757Z,3.87
2023-05-17T02:43:47.767Z,3.66
2023-05-17T02:44:49.683Z,3.87
2023-05-17T02:45:51.663Z,3.71
2023-05-17T02:46:53.698Z,3.87
2023-05-17T02:47:55.716Z,4.49
2023-05-17T02:48:57.850Z,3.65
2023-05-17T02:49:59.813Z,4.35
2023-05-17T02:51:01.807Z,4.57
2023-05-17T02:52:04.538Z,3.94
2023-05-17T02:53:06.432Z,4.36
2023-05-17T02:54:08.491Z,3.85
2023-05-17T02:55:10.422Z,4.29
2023-05-17T02:56:12.622Z,4.44
2023-05-17T02:57:14.653Z,5.36
2023-05-17T02:58:16.565Z,4.78
2023-05-17T02:59:18.470Z,4.85
2023-05-17T03:00:20.844Z,4.23
2023-05-17T03:01:23.359Z,3.69
2023-05-17T03:02:25.514Z,4.27
2023-05-17T03:03:27.891Z,4.53
2023-05-17T03:04:32.309Z,3.91
2023-05-17T03:05:34.478Z,4.04
2023-05-17T03:06:37.810Z,4.26
2023-05-17T03:07:39.726Z,3.59
2023-05-17T03:08:42.005Z,4.49
2023-05-17T03:09:43.952Z,4.35
2023-05-17T03:10:46.948Z,4.08
2023-05-17T03:11:49.457Z,4.10
2023-05-17T03:12:51.467Z,3.99
2023-05-17T03:13:53.504Z,3.97
2023-05-17T03:14:55.523Z,4.22
2023-05-17T03:15:57.426Z,4.39
2023-05-17T03:16:59.646Z,4.14
2023-05-17T03:18:01.751Z,3.91
2023-05-17T03:19:04.038Z,4.05
2023-05-17T03:20:07.980Z,4.52
2023-05-17T03:21:11.369Z,4.27
2023-05-17T03:22:13.536Z,4.24
2023-05-17T03:23:15.536Z,4.01
2023-05-17T03:24:17.498Z,4.57
2023-05-17T03:25:19.429Z,4.87
2023-05-17T03:26:21.454Z,4.15
2023-05-17T03:27:23.937Z,3.57
2023-05-17T03:28:26.130Z,3.65
2023-05-17T03:29:28.032Z,3.51
2023-05-17T03:30:30.121Z,4.27
2023-05-17T03:31:34.250Z,3.93
2023-05-17T03:32:41.457Z,3.92
2023-05-17T03:33:44.404Z,3.79
2023-05-17T03:34:46.433Z,3.73
2023-05-17T03:35:48.620Z,4.31
2023-05-17T03:36:50.973Z,3.89
2023-05-17T03:37:53.921Z,3.59
2023-05-17T03:38:59.501Z,4.25
2023-05-17T03:40:01.658Z,4.04
2023-05-17T03:41:03.888Z,3.58
2023-05-17T03:42:06.073Z,5.35
2023-05-17T03:43:08.173Z,4.41
2023-05-17T03:44:10.233Z,4.45
2023-05-17T03:45:12.313Z,3.96
2023-05-17T03:46:14.577Z,4.57
2023-05-17T03:47:16.669Z,4.95
2023-05-17T03:48:18.611Z,4.36
2023-05-17T03:49:22.483Z,5.06
2023-05-17T03:50:27.613Z,4.78
2023-05-17T03:51:29.757Z,4.79
2023-05-17T03:52:31.716Z,5.81
2023-05-17T03:53:33.659Z,5.09
2023-05-17T03:54:35.698Z,5.07
2023-05-17T03:55:37.691Z,5.53
2023-05-17T03:56:40.016Z,5.21
2023-05-17T03:57:43.858Z,5.79
2023-05-17T03:58:45.948Z,11.36
2023-05-17T03:59:47.830Z,14.01
2023-05-17T04:00:49.877Z,11.78
2023-05-17T04:01:51.839Z,9.74
2023-05-17T04:02:54.543Z,7.45
2023-05-17T04:03:56.706Z,6.23
2023-05-17T04:04:58.671Z,5.55
2023-05-17T04:06:04.789Z,5.51
2023-05-17T04:07:06.710Z,6.46
2023-05-17T04:08:08.809Z,5.52
2023-05-17T04:09:10.865Z,5.27
2023-05-17T04:10:13.342Z,5.21
2023-05-17T04:11:15.217Z,5.29
2023-05-17T04:12:17.979Z,5.07
2023-05-17T04:13:19.858Z,5.61
2023-05-17T04:14:21.748Z,4.87
2023-05-17T04:15:24.676Z,4.50
2023-05-17T04:16:26.904Z,4.94
2023-05-17T04:17:28.959Z,5.17
2023-05-17T04:18:36.799Z,4.61
2023-05-17T04:19:39.014Z,5.20
2023-05-17T04:20:42.207Z,5.47
2023-05-17T04:21:44.565Z,5.24
2023-05-17T04:22:46.433Z,5.36
2023-05-17T04:23:48.422Z,5.06
2023-05-17T04:24:50.418Z,5.24
2023-05-17T04:25:52.317Z,4.98
2023-05-17T04:26:54.470Z,5.65
2023-05-17T04:27:56.416Z,4.13
2023-05-17T04:28:58.302Z,4.51
2023-05-17T04:30:00.303Z,3.61
2023-05-17T04:31:05.161Z,4.03
2023-05-17T04:32:08.131Z,4.08
2023-05-17T04:33:11.457Z,4.23
2023-05-17T04:34:15.794Z,4.06
2023-05-17T04:35:18.000Z,4.58
2023-05-17T04:36:19.989Z,4.14
2023-05-17T04:37:22.331Z,3.70
2023-05-17T04:38:24.344Z,4.03
2023-05-17T04:39:26.409Z,3.81
2023-05-17T04:40:29.050Z,3.86
2023-05-17T04:41:31.093Z,3.89
2023-05-17T04:42:32.986Z,4.14
2023-05-17T04:43:34.960Z,4.18
2023-05-17T04:44:36.842Z,4.36
2023-05-17T04:45:38.730Z,4.39
2023-05-17T04:46:40.729Z,4.38
2023-05-17T04:47:42.662Z,4.33
2023-05-17T04:48:45.653Z,5.10
2023-05-17T04:49:47.851Z,4.89
2023-05-17T04:50:49.824Z,3.69
2023-05-17T04:51:52.041Z,4.08
2023-05-17T04:52:53.950Z,4.73
2023-05-17T04:53:56.180Z,4.29
2023-05-17T04:54:58.258Z,4.82
2023-05-17T04:56:00.349Z,4.25
2023-05-17T04:57:02.391Z,4.17
2023-05-17T04:58:04.275Z,4.56
2023-05-17T04:59:06.158Z,4.20
2023-05-17T05:00:09.250Z,4.33
2023-05-17T05:01:11.279Z,3.64
2023-05-17T05:02:13.168Z,4.06
2023-05-17T05:03:15.662Z,4.02
2023-05-17T05:04:17.986Z,4.56
2023-05-17T05:05:20.076Z,4.13
2023-05-17T05:06:22.079Z,3.71
2023-05-17T05:07:24.173Z,3.55
2023-05-17T05:08:26.062Z,3.97
2023-05-17T05:09:27.963Z,4.57
2023-05-17T05:10:30.140Z,4.03
2023-05-17T05:11:32.096Z,4.27
2023-05-17T05:12:33.975Z,4.35
2023-05-17T05:13:35.880Z,3.20
2023-05-17T05:14:37.781Z,3.61
2023-05-17T05:15:39.804Z,3.97
2023-05-17T05:16:41.953Z,3.63
2023-05-17T05:17:44.050Z,3.99
2023-05-17T05:18:46.189Z,3.41
2023-05-17T05:19:48.393Z,3.81
2023-05-17T05:20:50.813Z,3.52
2023-05-17T05:21:52.951Z,3.21
2023-05-17T05:22:54.871Z,3.70
2023-05-17T05:23:56.789Z,3.91
2023-05-17T05:24:58.917Z,3.99
2023-05-17T05:26:00.977Z,3.91
2023-05-17T05:27:05.534Z,3.80
2023-05-17T05:28:07.055Z,3.59
2023-05-17T05:29:08.955Z,4.36
2023-05-17T05:30:12.827Z,3.63
2023-05-17T05:31:14.749Z,3.29
2023-05-17T05:32:16.645Z,3.87
2023-05-17T05:33:19.496Z,3.61
2023-05-17T05:34:21.597Z,3.78
2023-05-17T05:35:24.066Z,3.86
2023-05-17T05:36:26.075Z,3.88
2023-05-17T05:37:28.073Z,3.57
2023-05-17T05:38:30.063Z,3.56
2023-05-17T05:39:32.054Z,3.31
2023-05-17T05:40:34.048Z,3.53
2023-05-17T05:41:36.200Z,3.31
2023-05-17T05:42:38.160Z,3.45
2023-05-17T05:43:40.112Z,3.45
2023-05-17T05:44:42.258Z,3.21
2023-05-17T05:45:44.670Z,3.27
2023-05-17T05:46:46.799Z,4.09
2023-05-17T05:47:49.547Z,3.53
2023-05-17T05:48:51.841Z,3.86
2023-05-17T05:49:54.011Z,3.51
2023-05-17T05:50:57.930Z,3.97
2023-05-17T05:51:59.928Z,3.69
2023-05-17T05:53:14.378Z,3.89
2023-05-17T05:54:05.965Z,3.38
2023-05-17T05:55:08.682Z,3.25
2023-05-17T05:56:10.956Z,3.15
2023-05-17T05:57:13.037Z,3.50
2023-05-17T05:58:15.429Z,3.36
2023-05-17T05:59:17.353Z,3.41
2023-05-17T06:00:19.901Z,3.56
2023-05-17T06:01:22.109Z,3.05
2023-05-17T06:02:24.038Z,3.27
2023-05-17T06:03:26.231Z,3.50
2023-05-17T06:04:36.693Z,3.44
2023-05-17T06:05:32.313Z,3.52
2023-05-17T06:06:35.398Z,3.39
2023-05-17T06:07:37.725Z,3.16
2023-05-17T06:08:40.782Z,3.29
2023-05-17T06:09:43.234Z,3.61
2023-05-17T06:10:45.661Z,2.81
2023-05-17T06:11:47.589Z,3.65
2023-05-17T06:12:49.712Z,3.63
2023-05-17T06:13:51.617Z,3.00
2023-05-17T06:14:53.516Z,3.41
2023-05-17T06:15:55.560Z,3.37
2023-05-17T06:16:57.974Z,3.13
2023-05-17T06:18:00.228Z,3.51
2023-05-17T06:19:03.214Z,3.29
2023-05-17T06:20:06.618Z,3.22
2023-05-17T06:21:08.670Z,3.25
2023-05-17T06:22:14.518Z,3.07
2023-05-17T06:23:16.464Z,3.36
2023-05-17T06:24:18.354Z,3.37
2023-05-17T06:25:20.465Z,3.19
2023-05-17T06:26:22.467Z,3.08
2023-05-17T06:27:24.519Z,3.32
2023-05-17T06:28:26.431Z,2.63
2023-05-17T06:29:28.401Z,3.59
2023-05-17T06:30:31.048Z,3.27
2023-05-17T06:31:33.457Z,3.39
2023-05-17T06:32:35.761Z,3.29
2023-05-17T06:33:37.903Z,3.00
2023-05-17T06:34:39.859Z,3.06
2023-05-17T06:35:55.715Z,3.15
2023-05-17T06:36:46.812Z,3.23
2023-05-17T06:37:50.592Z,3.57
2023-05-17T06:38:52.742Z,3.24
2023-05-17T06:40:10.164Z,3.07
2023-05-17T06:41:07.786Z,3.01
2023-05-17T06:42:09.675Z,3.21
2023-05-17T06:43:11.733Z,3.02
2023-05-17T06:44:13.777Z,3.22
2023-05-17T06:45:15.762Z,3.19
2023-05-17T06:46:17.995Z,3.50
2023-05-17T06:47:20.049Z,3.15
2023-05-17T06:48:22.591Z,2.87
2023-05-17T06:49:24.895Z,3.24
2023-05-17T06:50:27.493Z,3.07
2023-05-17T06:51:29.796Z,2.72
2023-05-17T06:52:31.911Z,3.26
2023-05-17T06:53:33.787Z,2.77
2023-05-17T06:54:35.690Z,3.74
2023-05-17T06:55:37.659Z,3.09
2023-05-17T06:56:41.076Z,3.83
2023-05-17T06:57:43.017Z,3.14
2023-05-17T06:58:45.162Z,2.89
2023-05-17T06:59:47.171Z,3.21
2023-05-17T07:00:49.262Z,3.58
2023-05-17T07:01:51.289Z,3.17
2023-05-17T07:02:53.283Z,3.31
2023-05-17T07:03:55.441Z,2.88
2023-05-17T07:04:57.625Z,2.72
2023-05-17T07:05:59.573Z,3.25
2023-05-17T07:07:02.472Z,3.02
2023-05-17T07:08:04.572Z,2.95
2023-05-17T07:09:06.673Z,2.81
2023-05-17T07:10:09.351Z,3.23
2023-05-17T07:11:12.947Z,2.71
2023-05-17T07:12:14.850Z,2.90
2023-05-17T07:13:16.779Z,2.98
2023-05-17T07:14:18.765Z,3.05
2023-05-17T07:15:20.888Z,3.25
2023-05-17T07:16:23.010Z,3.27
2023-05-17T07:17:24.905Z,2.95
2023-05-17T07:18:27.366Z,3.01
2023-05-17T07:19:29.558Z,2.81
2023-05-17T07:20:33.188Z,2.85
2023-05-17T07:21:35.209Z,2.67
2023-05-17T07:22:37.268Z,2.07
2023-05-17T07:23:39.151Z,2.70
2023-05-17T07:24:41.057Z,2.82
2023-05-17T07:25:42.946Z,5.48
2023-05-17T07:26:46.508Z,3.47
2023-05-17T07:27:48.528Z,2.51
2023-05-17T07:28:50.852Z,2.64
2023-05-17T07:29:52.905Z,2.52
2023-05-17T07:30:54.987Z,2.59
2023-05-17T07:31:57.138Z,2.89
2023-05-17T07:32:59.626Z,3.03
2023-05-17T07:34:02.048Z,2.55
2023-05-17T07:35:05.153Z,2.67
2023-05-17T07:36:08.089Z,2.37
2023-05-17T07:37:10.451Z,2.53
2023-05-17T07:38:12.860Z,2.57
2023-05-17T07:39:15.035Z,2.48
2023-05-17T07:40:17.319Z,2.36
2023-05-17T07:41:19.221Z,2.49
2023-05-17T07:42:21.346Z,2.69
2023-05-17T07:43:23.752Z,2.73
2023-05-17T07:44:25.969Z,2.71
2023-05-17T07:45:31.158Z,3.03
2023-05-17T07:46:33.594Z,2.62
2023-05-17T07:47:35.743Z,2.07
2023-05-17T07:48:37.910Z,2.59
2023-05-17T07:49:39.936Z,2.51
2023-05-17T07:50:44.154Z,2.37
2023-05-17T07:51:46.581Z,2.56
2023-05-17T07:52:48.682Z,2.51
2023-05-17T07:53:50.664Z,2.01
2023-05-17T07:54:53.099Z,2.23
2023-05-17T07:55:55.786Z,2.47
2023-05-17T07:56:58.174Z,1.83
2023-05-17T07:58:00.339Z,2.89
2023-05-17T07:59:02.570Z,2.19
2023-05-17T08:00:06.958Z,2.86
2023-05-17T08:01:09.085Z,2.66
2023-05-17T08:02:11.216Z,2.17
2023-05-17T08:03:14.579Z,2.19
2023-05-17T08:04:17.295Z,2.55
2023-05-17T08:05:19.280Z,3.95
2023-05-17T08:06:24.141Z,3.16
2023-05-17T08:07:28.001Z,2.99
2023-05-17T08:08:29.922Z,2.66
2023-05-17T08:09:31.856Z,3.26
2023-05-17T08:10:33.967Z,2.81
2023-05-17T08:11:35.971Z,2.63
2023-05-17T08:12:38.002Z,2.62
2023-05-17T08:13:39.918Z,3.00
2023-05-17T08:14:42.038Z,2.82
2023-05-17T08:15:45.293Z,2.70
2023-05-17T08:16:47.589Z,2.31
2023-05-17T08:17:49.713Z,2.78
2023-05-17T08:18:52.123Z,2.96
2023-05-17T08:19:54.327Z,4.17
2023-05-17T08:20:57.041Z,3.29
2023-05-17T08:22:01.056Z,3.44
2023-05-17T08:23:03.096Z,3.15
2023-05-17T08:24:05.881Z,3.05
2023-05-17T08:25:08.595Z,4.05
2023-05-17T08:26:10.919Z,3.72
2023-05-17T08:27:12.859Z,3.03
2023-05-17T08:28:14.999Z,4.39
2023-05-17T08:29:16.906Z,3.63
2023-05-17T08:30:28.643Z,3.73
2023-05-17T08:31:22.754Z,3.68
2023-05-17T08:32:25.162Z,4.51
2023-05-17T08:33:27.294Z,4.64
2023-05-17T08:34:29.502Z,4.23
2023-05-17T08:35:31.590Z,4.83
2023-05-17T08:36:33.954Z,4.48
2023-05-17T08:37:36.137Z,4.28
2023-05-17T08:38:38.011Z,3.72
2023-05-17T08:39:39.933Z,3.54
2023-05-17T08:40:42.236Z,3.38
2023-05-17T08:41:46.544Z,3.79
2023-05-17T08:42:50.677Z,4.02
2023-05-17T08:43:54.577Z,4.39
2023-05-17T08:44:56.795Z,3.55
2023-05-17T08:45:59.054Z,3.99
2023-05-17T08:47:03.350Z,3.88
2023-05-17T08:48:06.377Z,4.56
2023-05-17T08:49:10.040Z,4.37
2023-05-17T08:50:13.049Z,3.96
2023-05-17T08:51:17.220Z,4.27
2023-05-17T08:52:20.206Z,4.21
2023-05-17T08:53:23.748Z,4.78
2023-05-17T08:54:26.345Z,4.47
2023-05-17T08:55:30.982Z,4.01
2023-05-17T08:56:34.732Z,3.69
2023-05-17T08:57:38.634Z,3.81
2023-05-17T08:58:55.679Z,3.85
2023-05-17T08:59:47.698Z,4.12
2023-05-17T09:00:52.198Z,3.91
2023-05-17T09:01:54.906Z,4.96
2023-05-17T09:02:57.131Z,4.17
2023-05-17T09:04:00.544Z,4.83
2023-05-17T09:05:03.326Z,5.53
2023-05-17T09:06:06.821Z,5.66
2023-05-17T09:07:08.886Z,4.13
2023-05-17T09:08:11.722Z,4.30
2023-05-17T09:09:14.527Z,4.88
2023-05-17T09:10:16.911Z,4.35
2023-05-17T09:12:37.214Z,4.81
2023-05-17T09:13:39.204Z,4.51
2023-05-17T09:14:41.079Z,4.39
2023-05-17T09:15:44.579Z,3.74
2023-05-17T09:16:46.808Z,4.66
2023-05-17T09:17:53.100Z,4.15
2023-05-17T09:18:57.450Z,3.34
2023-05-17T09:19:59.961Z,3.43
2023-05-17T09:21:03.160Z,3.53
2023-05-17T09:22:06.681Z,3.17
2023-05-17T09:23:10.208Z,3.11
2023-05-17T09:24:13.544Z,3.28
2023-05-17T09:25:21.990Z,2.98
2023-05-17T09:26:25.676Z,3.92
2023-05-17T09:27:30.895Z,3.04
2023-05-17T09:28:42.043Z,2.58
2023-05-17T09:30:48.594Z,3.42
2023-05-17T09:31:50.624Z,3.15
2023-05-17T09:32:52.593Z,3.22
2023-05-17T09:33:54.702Z,3.09
2023-05-17T09:34:58.748Z,2.85
2023-05-17T09:36:01.671Z,2.79
2023-05-17T09:37:04.512Z,2.95
2023-05-17T09:38:08.856Z,2.76
2023-05-17T09:39:12.358Z,3.02
2023-05-17T09:40:24.332Z,3.09
2023-05-17T09:41:29.429Z,2.88
2023-05-17T09:42:36.222Z,2.96
2023-05-17T09:43:38.578Z,2.66
2023-05-17T09:44:51.627Z,3.13
2023-05-17T09:45:58.062Z,2.73
2023-05-17T09:47:00.774Z,3.29
2023-05-17T09:48:17.143Z,3.23
2023-05-17T09:49:19.692Z,2.64
2023-05-17T09:50:25.326Z,2.89
2023-05-17T09:51:33.959Z,3.86
2023-05-17T09:52:36.999Z,3.25
2023-05-17T09:53:39.092Z,2.83
2023-05-17T09:54:42.206Z,3.18
2023-05-17T09:55:47.583Z,2.21
2023-05-17T09:56:53.934Z,3.11
2023-05-17T09:58:00.585Z,3.03
2023-05-17T09:59:04.429Z,3.46
2023-05-17T10:00:08.864Z,2.49
2023-05-17T10:01:11.224Z,2.65
2023-05-17T10:02:21.992Z,2.51
2023-05-17T10:03:32.484Z,2.59
2023-05-17T10:04:36.776Z,2.28
2023-05-17T10:05:42.550Z,1.95
2023-05-17T10:06:49.847Z,2.08
2023-05-17T10:07:50.173Z,2.47
2023-05-17T10:08:55.318Z,2.37
2023-05-17T10:09:57.843Z,1.78
2023-05-17T10:11:06.963Z,2.21
2023-05-17T10:12:11.828Z,2.28
2023-05-17T10:13:17.038Z,2.21
2023-05-17T10:14:28.197Z,1.88
2023-05-17T10:15:31.075Z,2.36
2023-05-17T10:16:34.157Z,2.21
2023-05-17T10:17:38.337Z,1.99
2023-05-17T10:18:41.192Z,1.78
2023-05-17T10:19:45.009Z,2.06
2023-05-17T10:20:48.015Z,2.28
2023-05-17T10:21:52.324Z,2.37
2023-05-17T10:22:58.608Z,1.94
2023-05-17T10:24:05.937Z,3.88
2023-05-17T10:25:09.181Z,1.96
2023-05-17T10:26:14.007Z,2.41
2023-05-17T10:27:16.659Z,1.86
2023-05-17T10:28:20.296Z,1.95
2023-05-17T10:29:23.252Z,2.44
2023-05-17T10:30:28.119Z,2.49
2023-05-17T10:31:31.880Z,2.74
2023-05-17T10:32:33.814Z,1.94
2023-05-17T10:33:37.716Z,2.42
2023-05-17T10:34:40.266Z,2.64
2023-05-17T10:35:43.468Z,2.50
2023-05-17T10:36:47.971Z,2.32
2023-05-17T10:37:49.961Z,2.08
2023-05-17T10:38:52.854Z,2.27
2023-05-17T10:39:56.287Z,2.56
2023-05-17T10:41:00.488Z,2.18
2023-05-17T10:42:14.942Z,3.76
2023-05-17T10:43:11.968Z,2.46
2023-05-17T10:44:16.122Z,2.06
2023-05-17T10:45:23.784Z,2.16
2023-05-17T10:46:29.205Z,1.85
2023-05-17T10:47:33.446Z,2.14
2023-05-17T10:48:36.467Z,1.95
2023-05-17T10:49:38.808Z,2.39
2023-05-17T10:50:47.419Z,2.33
2023-05-17T10:51:45.623Z,2.35
2023-05-17T10:52:49.054Z,2.69
2023-05-17T10:54:12.471Z,2.12
2023-05-17T10:55:19.438Z,2.76
2023-05-17T10:56:21.476Z,2.23
2023-05-17T10:57:50.003Z,2.77
2023-05-17T10:58:38.976Z,2.58
2023-05-17T11:00:01.111Z,2.05
2023-05-17T11:01:03.084Z,2.21
2023-05-17T11:02:09.399Z,2.23
2023-05-17T11:03:14.045Z,2.23
2023-05-17T11:04:22.159Z,3.33
2023-05-17T11:05:26.134Z,4.01
2023-05-17T11:06:32.114Z,2.57
2023-05-17T11:07:34.176Z,3.46
2023-05-17T11:08:36.857Z,2.37
2023-05-17T11:09:40.074Z,2.61
2023-05-17T11:11:07.803Z,2.54
2023-05-17T11:12:11.432Z,2.33
2023-05-17T11:13:27.448Z,1.89
2023-05-17T11:14:47.383Z,2.05
2023-05-17T11:16:03.640Z,1.92
2023-05-17T11:18:30.519Z,1.93
2023-05-17T11:19:24.965Z,2.06
2023-05-17T11:20:32.955Z,1.82
2023-05-17T11:21:35.278Z,2.48
2023-05-17T11:23:04.830Z,1.95
2023-05-17T11:24:07.222Z,2.37
2023-05-17T11:25:12.255Z,2.09
2023-05-17T11:26:21.105Z,2.80
2023-05-17T11:27:23.619Z,1.91
2023-05-17T11:28:26.033Z,2.24
2023-05-17T11:29:29.237Z,1.88
2023-05-17T11:30:32.884Z,2.49
2023-05-17T11:31:37.016Z,2.46
2023-05-17T11:32:39.098Z,3.84
2023-05-17T11:33:45.719Z,2.76
2023-05-17T11:34:52.184Z,2.44
2023-05-17T11:35:55.000Z,2.22
2023-05-17T11:36:58.730Z,2.11
2023-05-17T11:38:13.168Z,2.60
2023-05-17T11:39:18.196Z,1.94
2023-05-17T11:40:27.325Z,2.21
2023-05-17T11:41:29.935Z,2.13
2023-05-17T11:42:34.056Z,2.04
2023-05-17T11:43:37.841Z,1.93
2023-05-17T11:44:40.594Z,2.16
2023-05-17T11:45:52.914Z,3.97
2023-05-17T11:47:05.977Z,3.16
2023-05-17T11:48:09.084Z,3.33
2023-05-17T11:49:17.761Z,2.56
2023-05-17T11:50:17.487Z,2.60
2023-05-17T11:51:21.367Z,3.62
2023-05-17T11:52:27.345Z,3.11
2023-05-17T11:53:30.989Z,2.19
2023-05-17T11:54:33.746Z,2.08
2023-05-17T11:55:42.146Z,1.75
2023-05-17T11:56:44.554Z,2.08
2023-05-17T11:57:47.332Z,2.07
2023-05-17T11:58:53.885Z,1.53
2023-05-17T12:00:01.004Z,1.77
2023-05-17T12:01:03.094Z,2.93
2023-05-17T12:02:05.578Z,3.20
2023-05-17T12:03:21.607Z,2.69
2023-05-17T12:04:25.665Z,2.59
2023-05-17T12:05:28.756Z,2.12
2023-05-17T12:06:31.111Z,2.27
2023-05-17T12:07:33.720Z,2.21
2023-05-17T12:08:37.896Z,3.31
2023-05-17T12:09:40.797Z,2.42
2023-05-17T12:10:51.868Z,4.23
2023-05-17T12:11:54.027Z,2.92
2023-05-17T12:12:55.938Z,3.13
2023-05-17T12:13:57.806Z,2.57
2023-05-17T12:15:01.207Z,1.79
2023-05-17T12:16:13.234Z,1.70
2023-05-17T12:18:43.043Z,2.14
2023-05-17T12:19:45.195Z,1.73
2023-05-17T12:20:57.328Z,1.59
2023-05-17T12:22:10.698Z,2.22
2023-05-17T12:23:12.648Z,1.79
2023-05-17T12:24:15.279Z,2.64
2023-05-17T12:25:21.632Z,2.88
2023-05-17T12:26:24.018Z,2.83
2023-05-17T12:27:26.460Z,1.63
2023-05-17T12:28:28.435Z,1.69
2023-05-17T12:29:30.443Z,1.73
2023-05-17T12:30:34.763Z,2.09
2023-05-17T12:31:43.221Z,2.25
2023-05-17T12:32:46.496Z,2.31
2023-05-17T12:33:48.892Z,3.09
2023-05-17T12:34:51.432Z,1.52
2023-05-17T12:35:54.089Z,1.56
2023-05-17T12:36:58.320Z,1.59
2023-05-17T12:38:01.447Z,1.33
2023-05-17T12:39:04.717Z,1.55
2023-05-17T12:40:08.520Z,1.91
2023-05-17T12:41:14.276Z,1.90
2023-05-17T12:42:16.227Z,1.73
2023-05-17T12:43:18.346Z,2.09
2023-05-17T12:44:20.784Z,1.73
2023-05-17T12:45:22.805Z,3.97
2023-05-17T12:46:24.900Z,3.43
2023-05-17T12:47:33.126Z,2.65
2023-05-17T12:48:36.546Z,1.82
2023-05-17T12:49:38.750Z,1.29
2023-05-17T12:50:43.799Z,1.39
2023-05-17T12:51:47.638Z,1.88
2023-05-17T12:52:49.562Z,1.85
2023-05-17T12:53:56.362Z,1.34
2023-05-17T12:54:58.944Z,1.31
2023-05-17T12:56:01.408Z,1.63
2023-05-17T12:57:12.993Z,1.27
2023-05-17T12:58:15.282Z,1.25
2023-05-17T12:59:18.395Z,1.47
2023-05-17T13:00:22.208Z,1.35
2023-05-17T13:01:24.127Z,1.42
2023-05-17T13:02:27.420Z,1.55
2023-05-17T13:03:29.589Z,1.36
2023-05-17T13:04:34.309Z,1.51
2023-05-17T13:05:36.614Z,1.32
2023-05-17T13:06:57.152Z,1.51
2023-05-17T13:08:19.989Z,1.41
2023-05-17T13:09:23.844Z,0.99
2023-05-17T13:10:27.258Z,2.15
2023-05-17T13:11:29.460Z,1.48
2023-05-17T13:12:31.578Z,1.56
2023-05-17T13:13:34.052Z,1.48
2023-05-17T13:14:45.664Z,1.47
2023-05-17T13:15:46.610Z,1.70
2023-05-17T13:16:50.860Z,1.85
2023-05-17T13:17:52.947Z,1.70
2023-05-17T13:19:52.270Z,2.04
2023-05-17T13:20:54.637Z,2.01
2023-05-17T13:21:56.944Z,1.90
2023-05-17T13:22:58.984Z,2.14
2023-05-17T13:24:00.960Z,2.49
2023-05-17T13:25:03.173Z,2.39
2023-05-17T13:26:05.381Z,2.41
2023-05-17T13:27:08.371Z,2.66
2023-05-17T13:28:10.407Z,2.29
2023-05-17T13:29:12.291Z,2.07
2023-05-17T13:30:17.039Z,2.69
2023-05-17T13:31:19.053Z,2.62
2023-05-17T13:32:21.201Z,2.60
2023-05-17T13:33:23.740Z,2.93
2023-05-17T13:34:25.875Z,2.69
2023-05-17T13:35:27.882Z,3.49
2023-05-17T13:36:29.973Z,3.14
2023-05-17T13:37:32.089Z,3.90
2023-05-17T13:38:33.994Z,3.15
2023-05-17T13:39:35.894Z,3.00
2023-05-17T13:41:31.441Z,5.09
2023-05-17T13:42:33.393Z,4.97
2023-05-17T13:43:36.857Z,2.89
2023-05-17T13:44:39.859Z,3.16
2023-05-17T13:45:41.973Z,2.92
2023-05-17T13:46:44.048Z,2.96
2023-05-17T13:47:46.180Z,2.83
2023-05-17T13:48:48.778Z,3.05
2023-05-17T13:49:50.883Z,3.65
2023-05-17T13:50:52.864Z,4.21
2023-05-17T13:51:55.121Z,2.63
2023-05-17T13:52:57.631Z,3.02
2023-05-17T13:54:00.071Z,3.11
2023-05-17T13:55:02.362Z,2.86
2023-05-17T13:56:05.671Z,3.44
2023-05-17T13:57:07.846Z,2.66
2023-05-17T13:58:10.002Z,2.41
2023-05-17T13:59:12.003Z,2.58
2023-05-17T14:00:15.025Z,2.55
2023-05-17T14:01:16.947Z,2.89
2023-05-17T14:02:18.919Z,2.38
2023-05-17T14:03:20.930Z,2.47
2023-05-17T14:04:23.812Z,3.10
2023-05-17T14:05:25.820Z,2.99
2023-05-17T14:06:28.149Z,2.90
2023-05-17T14:07:30.151Z,1.93
2023-05-17T14:08:32.189Z,2.45
2023-05-17T14:09:34.230Z,2.35
2023-05-17T14:10:36.444Z,2.76
2023-05-17T14:11:38.915Z,2.50
2023-05-17T14:12:40.844Z,2.43
2023-05-17T14:13:42.719Z,2.63
2023-05-17T14:14:44.733Z,2.39
2023-05-17T14:15:46.740Z,2.18
2023-05-17T14:16:49.115Z,2.06